createdAt,value
2023-01-11T00:04:03.866Z,86.65
2023-01-11T00:09:05.970Z,86.50
2023-01-11T00:14:08.100Z,86.48
2023-01-11T00:19:10.170Z,86.53
2023-01-11T00:24:12.309Z,86.42
2023-01-11T00:29:14.394Z,86.13
2023-01-11T00:34:17.056Z,86.82
2023-01-11T00:39:19.128Z,87.41
2023-01-11T00:44:40.041Z,87.10
2023-01-11T00:49:42.974Z,86.24
2023-01-11T00:54:45.075Z,87.46
2023-01-11T00:59:47.257Z,87.15
2023-01-11T01:04:49.338Z,87.08
2023-01-11T01:09:51.517Z,87.64
2023-01-11T01:14:53.615Z,87.31
2023-01-11T01:19:55.708Z,85.21
2023-01-11T01:24:57.790Z,85.82
2023-01-11T01:30:00.116Z,86.18
2023-01-11T01:35:02.282Z,86.16
2023-01-11T01:40:05.588Z,85.73
2023-01-11T01:45:23.163Z,85.92
2023-01-11T01:50:33.118Z,85.98
2023-01-11T01:55:39.124Z,86.18
2023-01-11T02:00:43.951Z,86.74
2023-01-11T02:05:46.207Z,86.67
2023-01-11T02:10:49.702Z,86.12
2023-01-11T02:16:07.786Z,86.84
2023-01-11T02:21:18.940Z,86.64
2023-01-11T02:26:58.975Z,86.81
2023-01-11T02:32:33.696Z,87.83
2023-01-11T02:37:54.707Z,87.41
2023-01-11T02:43:39.795Z,86.99
2023-01-11T02:49:12.561Z,87.11
2023-01-11T02:54:18.673Z,87.19
2023-01-11T02:59:23.894Z,87.29
2023-01-11T03:04:35.633Z,88.01
2023-01-11T03:09:56.763Z,88.12
2023-01-11T03:15:36.205Z,88.35
2023-01-11T03:21:16.221Z,88.69
2023-01-11T03:26:36.917Z,88.58
2023-01-11T03:31:44.233Z,88.12
2023-01-11T03:36:46.252Z,89.19
2023-01-11T03:41:51.464Z,89.40
2023-01-11T03:46:59.603Z,90.42
2023-01-11T03:52:05.421Z,89.59
2023-01-11T03:57:20.831Z,88.45
2023-01-11T04:02:27.452Z,88.59
2023-01-11T04:07:29.633Z,88.27
2023-01-11T04:12:31.700Z,88.66
2023-01-11T04:17:33.780Z,87.66
2023-01-11T04:22:36.252Z,88.71
2023-01-11T04:27:38.296Z,89.22
2023-01-11T04:32:40.392Z,89.04
2023-01-11T04:37:42.543Z,89.37
2023-01-11T04:42:46.728Z,89.75
2023-01-11T04:47:55.699Z,88.45
2023-01-11T04:52:59.036Z,90.00
2023-01-11T04:58:01.112Z,90.26
2023-01-11T05:03:03.187Z,90.67
2023-01-11T05:08:05.404Z,91.37
2023-01-11T05:13:07.514Z,91.39
2023-01-11T05:18:09.677Z,91.67
2023-01-11T05:23:11.770Z,91.72
2023-01-11T05:28:13.857Z,92.01
2023-01-11T05:33:15.952Z,91.83
2023-01-11T05:38:18.059Z,91.65
2023-01-11T05:43:21.293Z,91.51
2023-01-11T05:48:24.270Z,91.50
2023-01-11T05:53:26.378Z,91.11
2023-01-11T05:58:28.478Z,91.18
2023-01-11T06:03:30.591Z,91.90
2023-01-11T06:08:32.756Z,91.63
2023-01-11T06:13:34.867Z,92.01
2023-01-11T06:18:42.091Z,91.33
2023-01-11T06:23:47.077Z,91.37
2023-01-11T06:28:50.164Z,91.61
2023-01-11T06:33:52.305Z,91.44
2023-01-11T06:38:54.416Z,91.44
2023-01-11T06:43:56.638Z,91.08
2023-01-11T06:48:58.729Z,91.44
2023-01-11T06:54:00.834Z,91.11
2023-01-11T06:59:02.901Z,91.54
2023-01-11T07:04:05.253Z,92.00
2023-01-11T07:09:07.351Z,91.49
2023-01-11T07:14:09.861Z,90.79
2023-01-11T07:19:12.181Z,90.20
2023-01-11T07:24:14.375Z,90.75
2023-01-11T07:29:16.434Z,90.30
2023-01-11T07:34:18.537Z,89.92
2023-01-11T07:39:23.290Z,89.40
2023-01-11T07:44:27.321Z,89.45
2023-01-11T07:49:29.636Z,89.13
2023-01-11T07:54:31.730Z,89.10
2023-01-11T07:59:33.895Z,88.11
2023-01-11T08:04:35.948Z,87.69
2023-01-11T08:09:38.023Z,87.20
2023-01-11T08:14:40.229Z,86.89
2023-01-11T08:19:43.171Z,87.23
2023-01-11T08:24:45.312Z,87.30
2023-01-11T08:29:47.401Z,86.37
2023-01-11T08:34:49.496Z,86.15
2023-01-11T08:39:51.583Z,86.98
2023-01-11T08:44:55.434Z,86.06
2023-01-11T08:49:57.551Z,85.57
2023-01-11T08:54:59.716Z,83.86
2023-01-11T09:00:03.705Z,83.93
2023-01-11T09:05:06.289Z,83.53
2023-01-11T09:10:09.037Z,83.04
2023-01-11T09:15:11.841Z,81.93
2023-01-11T09:20:14.295Z,81.86
2023-01-11T09:25:16.623Z,81.19
2023-01-11T09:30:21.237Z,81.99
2023-01-11T09:35:23.445Z,81.09
2023-01-11T09:40:42.094Z,79.90
2023-01-11T09:45:47.136Z,79.09
2023-01-11T09:50:49.602Z,77.91
2023-01-11T09:55:53.559Z,77.51
2023-01-11T10:00:55.703Z,73.20
2023-01-11T10:06:15.086Z,62.65
2023-01-11T10:18:30.858Z,60.10
2023-01-11T10:22:58.999Z,35.79
2023-01-11T10:28:07.609Z,29.33
2023-01-11T10:33:45.535Z,26.80
2023-01-11T10:38:56.370Z,24.82
2023-01-11T10:44:19.429Z,23.72
2023-01-11T10:49:30.286Z,22.48
2023-01-11T10:54:35.658Z,21.79
2023-01-11T10:59:59.738Z,21.37
2023-01-11T11:05:20.680Z,19.44
2023-01-11T11:10:35.937Z,22.09
2023-01-11T11:15:48.226Z,23.90
2023-01-11T11:20:50.577Z,25.31
2023-01-11T11:25:57.418Z,24.76
2023-01-11T11:31:03.156Z,25.27
2023-01-11T11:36:07.986Z,22.44
2023-01-11T11:41:11.825Z,19.45
2023-01-11T11:46:18.900Z,20.25
2023-01-11T11:51:23.658Z,20.16
2023-01-11T11:56:33.927Z,18.02
2023-01-11T12:01:44.098Z,19.98
2023-01-11T12:07:04.870Z,18.39
2023-01-11T12:12:07.486Z,20.29
2023-01-11T12:17:23.515Z,24.22
2023-01-11T12:22:29.128Z,26.09
2023-01-11T12:27:56.262Z,26.92
2023-01-11T12:33:29.524Z,21.21
2023-01-11T12:39:09.732Z,22.25
2023-01-11T12:44:27.551Z,23.70
2023-01-11T12:49:54.329Z,25.32
2023-01-11T12:55:20.683Z,21.41
2023-01-11T13:00:37.754Z,21.09
2023-01-11T13:06:01.857Z,23.03
2023-01-11T13:11:36.346Z,27.94
2023-01-11T13:17:17.556Z,27.45
2023-01-11T13:22:24.694Z,28.36
2023-01-11T13:27:31.774Z,31.13
2023-01-11T13:32:40.206Z,29.47
2023-01-11T13:37:58.603Z,29.50
2023-01-11T13:43:22.622Z,30.53
2023-01-11T13:48:43.237Z,28.28
2023-01-11T13:54:41.083Z,37.53
2023-01-11T13:59:49.191Z,42.43
2023-01-11T14:05:10.619Z,41.54
2023-01-11T14:10:37.573Z,37.94
2023-01-11T14:16:04.053Z,39.14
2023-01-11T14:21:47.771Z,39.59
2023-01-11T14:26:57.412Z,42.85
2023-01-11T14:32:24.348Z,44.46
2023-01-11T14:38:04.270Z,45.78
2023-01-11T14:43:43.723Z,50.58
2023-01-11T14:49:09.396Z,51.09
2023-01-11T14:54:23.490Z,56.23
2023-01-11T14:59:31.684Z,59.28
2023-01-11T15:04:52.109Z,61.46
2023-01-11T15:09:54.619Z,64.16
2023-01-11T15:15:03.945Z,65.37
2023-01-11T15:20:12.916Z,67.29
2023-01-11T15:25:23.801Z,68.51
2023-01-11T15:30:28.893Z,69.33
2023-01-11T15:35:34.809Z,70.19
2023-01-11T15:40:41.601Z,70.50
2023-01-11T15:46:03.588Z,71.18
2023-01-11T15:51:35.307Z,71.72
2023-01-11T15:56:53.136Z,72.40
2023-01-11T16:02:13.813Z,71.28
2023-01-11T16:07:40.578Z,70.98
2023-01-11T16:13:15.341Z,71.65
2023-01-11T16:18:23.287Z,71.56
2023-01-11T16:23:25.645Z,71.11
2023-01-11T16:28:28.618Z,71.39
2023-01-11T16:33:32.947Z,74.23
2023-01-11T16:39:04.281Z,74.81
2023-01-11T16:44:09.027Z,75.86
2023-01-11T16:49:16.211Z,74.35
2023-01-11T16:54:28.527Z,73.80
2023-01-11T16:59:30.962Z,74.06
2023-01-11T17:04:36.157Z,74.14
2023-01-11T17:09:38.315Z,73.60
2023-01-11T17:15:17.681Z,73.66
2023-01-11T17:20:22.179Z,74.16
2023-01-11T17:25:41.126Z,75.73
2023-01-11T17:30:50.557Z,77.12
2023-01-11T17:35:53.857Z,78.38
2023-01-11T17:40:57.043Z,79.23
2023-01-11T17:46:02.670Z,80.38
2023-01-11T17:51:05.823Z,81.09
2023-01-11T17:56:38.492Z,81.84
2023-01-11T18:01:49.338Z,82.94
2023-01-11T18:06:55.555Z,82.35
2023-01-11T18:12:12.273Z,82.12
2023-01-11T18:17:32.753Z,82.89
2023-01-11T18:22:42.722Z,82.93
2023-01-11T18:27:46.814Z,83.55
2023-01-11T18:32:48.966Z,84.38
2023-01-11T18:37:51.113Z,84.63
2023-01-11T18:42:53.960Z,85.21
2023-01-11T18:47:56.047Z,85.73
2023-01-11T18:52:58.192Z,86.28
2023-01-11T18:58:00.752Z,87.17
2023-01-11T19:03:04.732Z,87.55
2023-01-11T19:08:08.057Z,87.91
2023-01-11T19:13:10.555Z,88.00
2023-01-11T19:18:16.410Z,88.74
2023-01-11T19:23:18.589Z,88.94
2023-01-11T19:28:20.759Z,89.44
2023-01-11T19:33:22.998Z,89.78
2023-01-11T19:38:25.416Z,89.92
2023-01-11T19:43:29.326Z,90.44
2023-01-11T19:48:34.745Z,90.59
2023-01-11T19:53:39.579Z,90.44
2023-01-11T19:58:41.693Z,90.40
2023-01-11T20:03:46.285Z,90.98
2023-01-11T20:08:48.465Z,90.40
2023-01-11T20:13:52.022Z,90.38
2023-01-11T20:18:56.914Z,90.42
2023-01-11T20:23:59.650Z,91.16
2023-01-11T20:29:02.152Z,91.60
2023-01-11T20:34:10.082Z,91.72
2023-01-11T20:39:12.409Z,91.28
2023-01-11T20:44:16.216Z,90.83
2023-01-11T20:49:19.449Z,90.64
2023-01-11T20:54:21.597Z,90.69
2023-01-11T20:59:23.641Z,90.37
2023-01-11T21:04:25.747Z,90.81
2023-01-11T21:09:27.851Z,90.91
2023-01-11T21:14:30.587Z,91.34
2023-01-11T21:19:32.759Z,91.67
2023-01-11T21:24:36.851Z,92.38
2023-01-11T21:29:38.999Z,92.71
2023-01-11T21:34:41.166Z,93.47
2023-01-11T21:39:44.531Z,93.68
2023-01-11T21:44:46.713Z,94.21
2023-01-11T21:49:48.951Z,94.50
2023-01-11T21:54:52.188Z,94.85
2023-01-11T21:59:54.369Z,94.98
2023-01-11T22:04:57.757Z,95.24
2023-01-11T22:10:05.134Z,95.27
2023-01-11T22:15:08.392Z,95.30
2023-01-11T22:20:11.346Z,95.20
2023-01-11T22:25:13.468Z,95.27
2023-01-11T22:30:15.888Z,95.46
2023-01-11T22:35:20.933Z,95.66
2023-01-11T22:40:23.071Z,95.73
2023-01-11T22:45:25.212Z,95.80
2023-01-11T22:50:29.867Z,95.74
2023-01-11T22:55:33.724Z,95.63
2023-01-11T23:00:36.834Z,95.62
2023-01-11T23:05:46.268Z,95.29
2023-01-11T23:10:48.821Z,94.91
2023-01-11T23:15:54.946Z,94.89
2023-01-11T23:21:03.072Z,94.97
2023-01-11T23:26:07.257Z,94.99
2023-01-11T23:31:17.136Z,95.05
2023-01-11T23:36:21.601Z,95.14
2023-01-11T23:41:42.877Z,94.79
2023-01-11T23:47:04.768Z,94.34
2023-01-11T23:52:07.307Z,93.78
2023-01-11T23:57:12.307Z,93.69
